| time (UTC) | temp C | wind direction | speed KPH | gust KPH | rain 1hr cm | rain 24hr cm | rain mn cm | humidity % | barometer mb |
| 20260510011025 | 12 | 162 | 1.6 | 3.2 | 0.00 | 0.99 | 0.97 | 86 | 1010.2 |
| 20260510010025 | 12 | 170 | 1.6 | 4.8 | 0.00 | 0.99 | 0.97 | 87 | 1010.0 |
| 20260510005025 | 12 | 140 | 0.0 | 4.8 | 0.00 | 0.99 | 0.97 | 87 | 1009.8 |
| 20260510004025 | 12 | 162 | 0.0 | 0.0 | 0.00 | 0.99 | 0.97 | 88 | 1009.7 |
| 20260510003025 | 12 | 162 | 0.0 | 0.0 | 0.00 | 0.99 | 0.97 | 87 | 1009.7 |
| 20260510002025 | 12 | 162 | 0.0 | 0.0 | 0.00 | 0.99 | 0.97 | 87 | 1009.5 |
| 20260510001025 | 12 | 162 | 0.0 | 0.0 | 0.00 | 0.99 | 0.97 | 86 | 1009.5 |
| 20260510000024 | 13 | 162 | 0.0 | 1.6 | 0.00 | 0.99 | 0.97 | 85 | 1009.4 |
| 20260509233025 | 13 | 168 | 1.6 | 4.8 | 0.00 | 0.99 | 0.97 | 86 | 1009.2 |
| 20260509232025 | 13 | 156 | 1.6 | 4.8 | 0.00 | 0.99 | 0.97 | 85 | 1009.2 |
| 20260509231024 | 13 | 174 | 1.6 | 4.8 | 0.00 | 0.99 | 0.97 | 85 | 1009.1 |
| 20260509230025 | 13 | 168 | 3.2 | 4.8 | 0.00 | 1.02 | 0.97 | 85 | 1009.2 |
| 20260509225025 | 13 | 160 | 1.6 | 4.8 | 0.00 | 1.02 | 0.97 | 86 | 1009.2 |
| 20260509224025 | 13 | 189 | 3.2 | 11.3 | 0.00 | 1.02 | 0.97 | 86 | 1009.2 |
| 20260509222025 | 13 | 228 | 1.6 | 4.8 | 0.00 | 1.07 | 0.97 | 86 | 1009.2 |
| 20260509221025 | 14 | 193 | 1.6 | 8.0 | 0.00 | 1.12 | 0.97 | 86 | 1009.3 |
| 20260509220024 | 13 | 180 | 3.2 | 8.0 | 0.00 | 1.12 | 0.97 | 87 | 1009.4 |
| 20260509214025 | 13 | 152 | 0.0 | 9.7 | 0.00 | 1.12 | 0.97 | 90 | 1009.4 |
| 20260509213024 | 13 | 195 | 1.6 | 8.0 | 0.00 | 1.12 | 0.97 | 91 | 1009.4 |
| 20260509212025 | 12 | 194 | 1.6 | 9.7 | 0.00 | 1.12 | 0.97 | 92 | 1009.5 |
| 20260509211025 | 12 | 172 | 3.2 | 4.8 | 0.00 | 1.12 | 0.97 | 92 | 1009.6 |
| 20260509210024 | 12 | 175 | 3.2 | 4.8 | 0.00 | 1.12 | 0.97 | 95 | 1009.7 |
| 20260509205025 | 12 | 179 | 3.2 | 8.0 | 0.00 | 1.12 | 0.97 | 94 | 1009.9 |
| 20260509204025 | 12 | 205 | 1.6 | 4.8 | 0.00 | 1.12 | 0.97 | 96 | 1010.0 |
| 20260509203025 | 11 | 183 | 1.6 | 4.8 | 0.00 | 1.12 | 0.97 | 95 | 1010.0 |
| 20260509201024 | 11 | 235 | 3.2 | 11.3 | 0.03 | 1.12 | 0.97 | 96 | 1010.3 |
| 20260509200025 | 11 | 218 | 1.6 | 9.7 | 0.05 | 1.12 | 0.97 | 96 | 1010.4 |
| 20260509195025 | 11 | 208 | 1.6 | 8.0 | 0.08 | 1.22 | 0.97 | 96 | 1010.4 |
| 20260509194025 | 11 | 200 | 1.6 | 8.0 | 0.10 | 1.22 | 0.97 | 96 | 1010.5 |
| 20260509193025 | 11 | 198 | 1.6 | 4.8 | 0.13 | 1.22 | 0.97 | 96 | 1010.4 |
| 20260509192024 | 10 | 161 | 0.0 | 4.8 | 0.13 | 1.19 | 0.94 | 95 | 1010.3 |
| 20260509191025 | 11 | 188 | 1.6 | 4.8 | 0.20 | 1.19 | 0.94 | 96 | 1010.5 |
| 20260509190025 | 10 | 204 | 3.2 | 8.0 | 0.20 | 1.17 | 0.91 | 95 | 1010.7 |
| 20260509185025 | 10 | 169 | 1.6 | 4.8 | 0.23 | 1.14 | 0.89 | 96 | 1010.8 |
| 20260509184024 | 10 | 205 | 1.6 | 9.7 | 0.23 | 1.12 | 0.86 | 95 | 1010.8 |
| 20260509183024 | 10 | 259 | 0.0 | 4.8 | 0.25 | 1.09 | 0.84 | 95 | 1011.0 |
| 20260509181026 | 10 | 158 | 3.2 | 8.0 | 0.18 | 0.99 | 0.74 | 95 | 1011.0 |
| 20260509174025 | 11 | 170 | 3.2 | 8.0 | 0.15 | 0.89 | 0.64 | 95 | 1010.9 |
| 20260509173025 | 11 | 200 | 3.2 | 9.7 | 0.15 | 0.84 | 0.58 | 95 | 1010.9 |
| 20260509172025 | 11 | 179 | 3.2 | 8.0 | 0.20 | 0.84 | 0.58 | 95 | 1011.0 |
| 20260509171025 | 11 | 214 | 3.2 | 8.0 | 0.20 | 0.81 | 0.56 | 95 | 1010.9 |
| 20260509170025 | 10 | 168 | 3.2 | 8.0 | 0.23 | 0.79 | 0.53 | 95 | 1010.9 |
| 20260509165025 | 10 | 166 | 1.6 | 4.8 | 0.23 | 0.76 | 0.51 | 95 | 1010.9 |
| 20260509164025 | 10 | 168 | 3.2 | 9.7 | 0.23 | 0.74 | 0.48 | 95 | 1010.9 |
| 20260509163025 | 10 | 170 | 4.8 | 9.7 | 0.20 | 0.69 | 0.43 | 94 | 1010.9 |
| 20260509162025 | 11 | 141 | 3.2 | 8.0 | 0.15 | 0.64 | 0.38 | 94 | 1011.1 |
| 20260509161025 | 11 | 189 | 0.0 | 4.8 | 0.15 | 0.61 | 0.36 | 94 | 1011.2 |
| 20260509155025 | 11 | 156 | 4.8 | 8.0 | 0.13 | 0.53 | 0.28 | 94 | 1011.3 |
| 20260509154025 | 10 | 190 | 3.2 | 8.0 | 0.13 | 0.51 | 0.25 | 94 | 1011.3 |
| 20260509153025 | 10 | 164 | 3.2 | 12.9 | 0.10 | 0.48 | 0.23 | 94 | 1011.2 |
| 20260509152025 | 10 | 160 | 4.8 | 8.0 | 0.13 | 0.48 | 0.23 | 94 | 1011.0 |
| 20260509150025 | 10 | 160 | 1.6 | 4.8 | 0.08 | 0.43 | 0.18 | 94 | 1011.2 |
| 20260509145025 | 10 | 185 | 0.0 | 0.0 | 0.05 | 0.41 | 0.15 | 94 | 1011.3 |
| 20260509144024 | 10 | 210 | 0.0 | 0.0 | 0.05 | 0.38 | 0.13 | 94 | 1011.4 |
| 20260509143025 | 10 | 189 | 0.0 | 0.0 | 0.05 | 0.38 | 0.13 | 94 | 1011.4 |
| 20260509142025 | 10 | 157 | 0.0 | 0.0 | 0.05 | 0.36 | 0.10 | 94 | 1011.2 |
| 20260509141025 | 10 | 157 | 0.0 | 0.0 | 0.05 | 0.36 | 0.10 | 94 | 1011.2 |
| 20260509140025 | 10 | 252 | 0.0 | 1.6 | 0.05 | 0.36 | 0.10 | 94 | 1011.2 |
| 20260509135024 | 10 | 322 | 0.0 | 0.0 | 0.08 | 0.36 | 0.10 | 95 | 1011.2 |
| 20260509134025 | 10 | 322 | 0.0 | 0.0 | 0.05 | 0.33 | 0.08 | 95 | 1011.5 |
| 20260509133025 | 9 | 322 | 0.0 | 3.2 | 0.05 | 0.33 | 0.08 | 94 | 1011.5 |
| 20260509132025 | 9 | 322 | 0.0 | 3.2 | 0.03 | 0.30 | 0.05 | 94 | 1011.5 |
| 20260509131025 | 9 | 311 | 0.0 | 0.0 | 0.03 | 0.30 | 0.05 | 94 | 1011.6 |
| 20260509130025 | 9 | 312 | 0.0 | 3.2 | 0.03 | 0.30 | 0.05 | 93 | 1011.5 |
| 20260509124024 | 9 | 312 | 0.0 | 3.2 | 0.00 | 0.28 | 0.03 | 93 | 1011.1 |
| 20260509123024 | 9 | 312 | 0.0 | 3.2 | 0.00 | 0.28 | 0.03 | 92 | 1011.1 |
| 20260509122025 | 10 | 324 | 0.0 | 0.0 | 0.00 | 0.28 | 0.03 | 92 | 1011.1 |
| 20260509121025 | 10 | 324 | 0.0 | 3.2 | 0.00 | 0.28 | 0.03 | 92 | 1010.9 |
| 20260509120025 | 10 | 314 | 1.6 | 4.8 | 0.00 | 0.28 | 0.03 | 90 | 1010.9 |
| 20260509115025 | 10 | 27 | 0.0 | 3.2 | 0.00 | 0.28 | 0.03 | 90 | 1010.8 |
| 20260509114025 | 9 | 62 | 0.0 | 3.2 | 0.03 | 0.28 | 0.03 | 89 | 1010.8 |
| 20260509113025 | 9 | 116 | 0.0 | 3.2 | 0.03 | 0.28 | 0.03 | 89 | 1010.8 |
| 20260509112026 | 9 | 108 | 1.6 | 9.7 | 0.03 | 0.28 | 0.03 | 89 | 1011.0 |
| 20260509111025 | 9 | 127 | 0.0 | 3.2 | 0.03 | 0.28 | 0.03 | 89 | 1011.0 |
| 20260509110025 | 9 | 102 | 1.6 | 4.8 | 0.03 | 0.30 | 0.03 | 90 | 1010.9 |
| 20260509105025 | 9 | 95 | 1.6 | 3.2 | 0.03 | 0.30 | 0.03 | 90 | 1010.9 |
| 20260509104025 | 9 | 97 | 1.6 | 4.8 | 0.00 | 0.28 | 0.00 | 89 | 1010.9 |
| 20260509103025 | 8 | 122 | 1.6 | 4.8 | 0.00 | 0.28 | 0.00 | 90 | 1010.9 |
| 20260509102025 | 8 | 324 | 0.0 | 0.0 | 0.00 | 0.28 | 0.00 | 94 | 1011.0 |
| 20260509101025 | 8 | 324 | 0.0 | 0.0 | 0.00 | 0.28 | 0.00 | 94 | 1011.1 |
| 20260509094025 | 8 | 29 | 1.6 | 3.2 | 0.00 | 0.28 | 0.00 | 91 | 1011.2 |
| 20260509093025 | 8 | 29 | 0.0 | 3.2 | 0.00 | 0.28 | 0.00 | 91 | 1011.2 |
| 20260509092025 | 9 | 29 | 0.0 | 4.8 | 0.00 | 0.28 | 0.00 | 91 | 1011.2 |
| 20260509091025 | 9 | 62 | 0.0 | 3.2 | 0.00 | 0.28 | 0.00 | 90 | 1011.2 |
| 20260509090025 | 9 | 111 | 0.0 | 4.8 | 0.00 | 0.28 | 0.00 | 90 | 1011.3 |
| 20260509085025 | 9 | 93 | 1.6 | 4.8 | 0.00 | 0.28 | 0.00 | 90 | 1011.3 |
| 20260509084025 | 9 | 85 | 3.2 | 8.0 | 0.00 | 0.28 | 0.00 | 90 | 1011.3 |
| 20260509083025 | 9 | 124 | 3.2 | 4.8 | 0.00 | 0.28 | 0.00 | 90 | 1011.4 |
| 20260509082025 | 9 | 117 | 1.6 | 3.2 | 0.00 | 0.28 | 0.00 | 89 | 1011.6 |
| 20260509081025 | 9 | 157 | 1.6 | 3.2 | 0.00 | 0.28 | 0.00 | 89 | 1011.9 |
| 20260509080025 | 8 | 164 | 1.6 | 4.8 | 0.00 | 0.28 | 0.00 | 92 | 1012.1 |
| 20260509074025 | 8 | 297 | 0.0 | 0.0 | 0.00 | 0.28 | 0.00 | 93 | 1012.3 |
| 20260509073025 | 9 | 296 | 0.0 | 3.2 | 0.00 | 0.28 | 0.00 | 92 | 1012.1 |
| 20260509072025 | 9 | 132 | 0.0 | 0.0 | 0.00 | 0.28 | 0.00 | 91 | 1012.1 |
| 20260509071025 | 9 | 132 | 0.0 | 0.0 | 0.00 | 0.28 | 0.00 | 92 | 1011.9 |
| 20260509070025 | 9 | 132 | 0.0 | 0.0 | 0.00 | 0.28 | 0.00 | 93 | 1012.2 |
| 20260509065025 | 9 | 132 | 0.0 | 0.0 | 0.00 | 0.28 | 0.00 | 93 | 1012.4 |
| 20260509063025 | 9 | 132 | 0.0 | 0.0 | 0.00 | 0.28 | 0.00 | 93 | 1012.5 |
| 20260509062024 | 9 | 133 | 0.0 | 0.0 | 0.00 | 0.28 | 0.00 | 92 | 1012.6 |
| 20260509061025 | 9 | 132 | 0.0 | 0.0 | 0.00 | 0.28 | 0.00 | 93 | 1012.7 |
| 20260509060025 | 9 | 169 | 0.0 | 0.0 | 0.00 | 0.28 | 0.00 | 92 | 1012.8 |
| 20260509054025 | 9 | 169 | 0.0 | 1.6 | 0.00 | 0.28 | 0.00 | 93 | 1013.3 |
| 20260509053025 | 8 | 170 | 0.0 | 1.6 | 0.00 | 0.28 | 0.00 | 94 | 1013.5 |
| 20260509052025 | 8 | 354 | 0.0 | 0.0 | 0.00 | 0.28 | 0.00 | 93 | 1013.5 |
| 20260509051024 | 8 | 354 | 0.0 | 4.8 | 0.00 | 0.28 | 0.00 | 92 | 1013.5 |
| 20260509050025 | 9 | 339 | 0.0 | 4.8 | 0.00 | 0.28 | 0.00 | 92 | 1013.0 |
| 20260509045025 | 9 | 146 | 3.2 | 4.8 | 0.00 | 0.28 | 0.00 | 91 | 1012.8 |
| 20260509044025 | 9 | 157 | 1.6 | 4.8 | 0.00 | 0.28 | 0.00 | 91 | 1012.7 |
| 20260509042025 | 9 | 151 | 0.0 | 0.0 | 0.00 | 0.33 | 0.00 | 90 | 1012.5 |
| 20260509041025 | 9 | 151 | 0.0 | 0.0 | 0.00 | 0.33 | 0.00 | 90 | 1012.4 |
| 20260509040025 | 9 | 151 | 0.0 | 0.0 | 0.00 | 0.33 | 0.00 | 90 | 1012.6 |
| 20260509035025 | 10 | 151 | 0.0 | 0.0 | 0.00 | 0.33 | 0.33 | 90 | 1012.9 |
| 20260509034025 | 10 | 150 | 0.0 | 1.6 | 0.03 | 0.33 | 0.33 | 89 | 1013.1 |
| 20260509033026 | 10 | 168 | 0.0 | 0.0 | 0.03 | 0.33 | 0.33 | 88 | 1013.0 |
| 20260509032025 | 10 | 168 | 0.0 | 0.0 | 0.03 | 0.33 | 0.33 | 88 | 1012.9 |
| 20260509030025 | 10 | 168 | 0.0 | 0.0 | 0.03 | 0.33 | 0.33 | 89 | 1013.1 |
| 20260509025024 | 10 | 168 | 0.0 | 1.6 | 0.03 | 0.33 | 0.33 | 87 | 1013.3 |
| 20260509024025 | 10 | 168 | 0.0 | 3.2 | 0.00 | 0.36 | 0.30 | 87 | 1013.4 |
| 20260509023025 | 10 | 164 | 0.0 | 1.6 | 0.00 | 0.36 | 0.30 | 87 | 1013.4 |
| 20260509022025 | 10 | 164 | 0.0 | 3.2 | 0.00 | 0.36 | 0.30 | 85 | 1013.1 |
| 20260509021025 | 10 | 160 | 0.0 | 0.0 | 0.00 | 0.36 | 0.30 | 85 | 1012.9 |
| 20260509020025 | 10 | 161 | 0.0 | 0.0 | 0.00 | 0.36 | 0.30 | 85 | 1012.8 |
| 20260509015025 | 10 | 160 | 0.0 | 0.0 | 0.00 | 0.36 | 0.30 | 84 | 1012.9 |
| 20260509014025 | 10 | 161 | 0.0 | 0.0 | 0.00 | 0.36 | 0.30 | 84 | 1012.9 |
| 20260509013025 | 10 | 161 | 1.6 | 3.2 | 0.00 | 0.36 | 0.30 | 85 | 1012.8 |
| 20260509012025 | 9 | 156 | 0.0 | 0.0 | 0.00 | 0.36 | 0.30 | 86 | 1012.7 |